Terminal Aerodrome Forecast
Issued by NWS

Home | Current Version | Previous Version | Graphics & Text | Print | Product List | Glossary On
Versions: 1 2 3 4 5 6 7 8 9 10 11 12 13 14 15 16 17
000
FTUS43 KICT 221700
TAFCNU
TAF
KCNU 221720Z 2218/2318 04009KT P6SM SKC
     FM222300 10007KT P6SM SKC
     FM230900 14012KT P6SM BKN120
     FM231500 17015G25KT P6SM BKN120=

USA.gov is the U.S. government's official web portal to all federal, state and local government web resources and services.